Surface Preassure
0:00 UTC
12:00 UTC (Click for larger versions)
Andrewsfield Outlook

Current time:


  09:41:29am (GMT)      09:41:29am (UTC)


Headline: Western hills cloudy, pleasantly warm sunny spells in the east.

Today: Largely cloudy conditions persisting on the western Pennines, with a little patchy drizzle, but bright or sunny spells developing to the east. Feeling pleasantly warm in the sunnier spots. Maximum Temperature 16C.

Tonight: Continuing cloudy for western hills with a little patchy drizzle, but dry with occasional cloud breaks in the east. Mild, with a steady breeze.. Minimum Temperature 7C.

Thursday: Largely cloudy across western hills with a little patchy drizzle. Dry and brighter to the east, and feeling pleasantly warm. Maximum Temperature 16C.

Outlook for Friday to Sunday: Friday, rather cloudy morning, mostly dry in east, but thicker cloud and rain moving southeast later. Winds strengthening. Saturday, dry and bright, cooler. Sunday, stronger winds with a few showers.

Nearby METAR/TAF

Stansted (EGSS)


Current conditions: IFR

METAR: EGSS 200920Z AUTO 23007KT 9999 OVC007 10/09 Q1032

TAF: TAF AMD EGSS 200920Z 2009/2112 23006KT 9999 SCT014 BKN025 TEMPO 2009/2011 7000 BKN008 BECMG 2021/2024 6000 BECMG 2101/2104 3000 BR BKN004 BECMG 2108/2110 8000 NSW BKN010 BECMG 2110/2112 9999 BKN015

Southend (EGMC)


Current conditions: MVFR

METAR: EGMC 200920Z 25009KT 9999 BKN010 10/07 Q1033

TAF: TAF EGMC 200757Z 2009/2018 23006KT 9999 SCT040 TEMPO 2009/2011 BKN013

RAF Wattisham (EGUW)


Current conditions: MVFR

METAR: EGUW 200850Z 25008KT 6000 BR SCT004 BKN120 08/08 Q1031 YLO2 BECMG 9999 NSW SCT008 GRN

TAF: TAF AMD EGUW 200836Z 2009/2018 25006KT 5000 BR SCT004 BECMG 2009/2011 9999 NSW SCT008 BECMG 2011/2013 SCT015 TEMPO 2013/2018 FEW015